sensor_id;sensor_type;location;lat;lon;timestamp;P1;durP1;ratioP1;P2;durP2;ratioP2
30729;SDS011;17476;48.458;7.928;2024-03-29T00:01:16;0.30;;;0.30;;
30729;SDS011;17476;48.458;7.928;2024-03-29T00:03:42;0.23;;;0.23;;
30729;SDS011;17476;48.458;7.928;2024-03-29T00:06:08;0.30;;;0.30;;
30729;SDS011;17476;48.458;7.928;2024-03-29T00:08:34;0.37;;;0.37;;
30729;SDS011;17476;48.458;7.928;2024-03-29T00:11:00;0.30;;;0.30;;
30729;SDS011;17476;48.458;7.928;2024-03-29T00:13:26;0.30;;;0.30;;
30729;SDS011;17476;48.458;7.928;2024-03-29T00:15:51;0.37;;;0.37;;
30729;SDS011;17476;48.458;7.928;2024-03-29T00:18:17;0.30;;;0.30;;
30729;SDS011;17476;48.458;7.928;2024-03-29T00:20:43;0.30;;;0.30;;
30729;SDS011;17476;48.458;7.928;2024-03-29T00:23:09;0.30;;;0.30;;
30729;SDS011;17476;48.458;7.928;2024-03-29T00:25:34;0.23;;;0.23;;
30729;SDS011;17476;48.458;7.928;2024-03-29T00:28:00;0.30;;;0.30;;
30729;SDS011;17476;48.458;7.928;2024-03-29T00:30:28;0.30;;;0.30;;
30729;SDS011;17476;48.458;7.928;2024-03-29T00:32:54;0.30;;;0.30;;
30729;SDS011;17476;48.458;7.928;2024-03-29T00:35:20;0.30;;;0.30;;
30729;SDS011;17476;48.458;7.928;2024-03-29T00:37:47;0.30;;;0.30;;
30729;SDS011;17476;48.458;7.928;2024-03-29T00:40:14;0.30;;;0.30;;
30729;SDS011;17476;48.458;7.928;2024-03-29T00:42:40;0.30;;;0.30;;
30729;SDS011;17476;48.458;7.928;2024-03-29T00:45:06;0.30;;;0.30;;
30729;SDS011;17476;48.458;7.928;2024-03-29T00:47:32;0.30;;;0.30;;
30729;SDS011;17476;48.458;7.928;2024-03-29T00:49:58;0.30;;;0.30;;
30729;SDS011;17476;48.458;7.928;2024-03-29T00:52:24;0.30;;;0.30;;
30729;SDS011;17476;48.458;7.928;2024-03-29T00:54:50;0.30;;;0.30;;
30729;SDS011;17476;48.458;7.928;2024-03-29T00:57:16;0.30;;;0.30;;
30729;SDS011;17476;48.458;7.928;2024-03-29T00:59:42;0.30;;;0.30;;
30729;SDS011;17476;48.458;7.928;2024-03-29T01:02:12;0.30;;;0.30;;
30729;SDS011;17476;48.458;7.928;2024-03-29T01:04:37;0.30;;;0.30;;
30729;SDS011;17476;48.458;7.928;2024-03-29T01:07:05;0.30;;;0.30;;
30729;SDS011;17476;48.458;7.928;2024-03-29T01:09:31;0.30;;;0.30;;
30729;SDS011;17476;48.458;7.928;2024-03-29T01:11:57;0.33;;;0.33;;
30729;SDS011;17476;48.458;7.928;2024-03-29T01:14:22;0.40;;;0.40;;
30729;SDS011;17476;48.458;7.928;2024-03-29T01:16:48;0.30;;;0.30;;
30729;SDS011;17476;48.458;7.928;2024-03-29T01:19:14;0.30;;;0.30;;
30729;SDS011;17476;48.458;7.928;2024-03-29T01:21:40;0.30;;;0.30;;
30729;SDS011;17476;48.458;7.928;2024-03-29T01:24:05;0.40;;;0.40;;
30729;SDS011;17476;48.458;7.928;2024-03-29T01:26:31;0.30;;;0.30;;
30729;SDS011;17476;48.458;7.928;2024-03-29T01:28:57;0.30;;;0.30;;
30729;SDS011;17476;48.458;7.928;2024-03-29T01:31:23;0.30;;;0.30;;
30729;SDS011;17476;48.458;7.928;2024-03-29T01:33:49;0.30;;;0.30;;
30729;SDS011;17476;48.458;7.928;2024-03-29T01:36:15;0.30;;;0.30;;
30729;SDS011;17476;48.458;7.928;2024-03-29T01:38:41;0.30;;;0.30;;
30729;SDS011;17476;48.458;7.928;2024-03-29T01:41:07;0.30;;;0.30;;
30729;SDS011;17476;48.458;7.928;2024-03-29T01:43:32;0.30;;;0.30;;
30729;SDS011;17476;48.458;7.928;2024-03-29T01:45:58;0.30;;;0.30;;
30729;SDS011;17476;48.458;7.928;2024-03-29T01:48:24;0.30;;;0.30;;
30729;SDS011;17476;48.458;7.928;2024-03-29T01:50:53;0.30;;;0.30;;
30729;SDS011;17476;48.458;7.928;2024-03-29T01:53:21;0.30;;;0.30;;
30729;SDS011;17476;48.458;7.928;2024-03-29T01:55:49;0.30;;;0.30;;
30729;SDS011;17476;48.458;7.928;2024-03-29T01:58:15;0.20;;;0.20;;
30729;SDS011;17476;48.458;7.928;2024-03-29T02:00:44;0.30;;;0.30;;
30729;SDS011;17476;48.458;7.928;2024-03-29T02:03:19;0.30;;;0.30;;
30729;SDS011;17476;48.458;7.928;2024-03-29T02:05:46;0.40;;;0.40;;
30729;SDS011;17476;48.458;7.928;2024-03-29T02:08:13;0.30;;;0.30;;
30729;SDS011;17476;48.458;7.928;2024-03-29T02:10:43;0.30;;;0.30;;
30729;SDS011;17476;48.458;7.928;2024-03-29T02:13:11;0.30;;;0.30;;
30729;SDS011;17476;48.458;7.928;2024-03-29T02:15:38;0.30;;;0.30;;
30729;SDS011;17476;48.458;7.928;2024-03-29T02:18:05;0.30;;;0.30;;
30729;SDS011;17476;48.458;7.928;2024-03-29T02:20:32;0.20;;;0.20;;
30729;SDS011;17476;48.458;7.928;2024-03-29T02:25:33;0.30;;;0.30;;
30729;SDS011;17476;48.458;7.928;2024-03-29T02:28:01;0.30;;;0.30;;
30729;SDS011;17476;48.458;7.928;2024-03-29T02:30:30;0.30;;;0.30;;
30729;SDS011;17476;48.458;7.928;2024-03-29T02:32:59;0.20;;;0.20;;
30729;SDS011;17476;48.458;7.928;2024-03-29T02:35:26;0.20;;;0.20;;
30729;SDS011;17476;48.458;7.928;2024-03-29T02:37:52;0.40;;;0.40;;
30729;SDS011;17476;48.458;7.928;2024-03-29T02:40:19;0.20;;;0.20;;
30729;SDS011;17476;48.458;7.928;2024-03-29T02:42:47;0.30;;;0.30;;
30729;SDS011;17476;48.458;7.928;2024-03-29T02:45:13;0.20;;;0.20;;
30729;SDS011;17476;48.458;7.928;2024-03-29T02:47:39;0.30;;;0.30;;
30729;SDS011;17476;48.458;7.928;2024-03-29T02:50:06;0.20;;;0.20;;
30729;SDS011;17476;48.458;7.928;2024-03-29T02:52:34;0.30;;;0.30;;
30729;SDS011;17476;48.458;7.928;2024-03-29T02:55:00;0.30;;;0.30;;
30729;SDS011;17476;48.458;7.928;2024-03-29T02:57:26;0.30;;;0.30;;
30729;SDS011;17476;48.458;7.928;2024-03-29T02:59:52;0.30;;;0.30;;
30729;SDS011;17476;48.458;7.928;2024-03-29T03:02:17;0.20;;;0.20;;
30729;SDS011;17476;48.458;7.928;2024-03-29T03:04:43;0.30;;;0.30;;
30729;SDS011;17476;48.458;7.928;2024-03-29T03:07:09;0.40;;;0.40;;
30729;SDS011;17476;48.458;7.928;2024-03-29T03:09:53;0.30;;;0.30;;
30729;SDS011;17476;48.458;7.928;2024-03-29T03:12:37;0.40;;;0.40;;
30729;SDS011;17476;48.458;7.928;2024-03-29T03:15:03;0.30;;;0.30;;
30729;SDS011;17476;48.458;7.928;2024-03-29T03:17:30;0.30;;;0.30;;
30729;SDS011;17476;48.458;7.928;2024-03-29T03:19:56;0.20;;;0.20;;
30729;SDS011;17476;48.458;7.928;2024-03-29T03:22:22;0.40;;;0.40;;
30729;SDS011;17476;48.458;7.928;2024-03-29T03:24:48;0.30;;;0.30;;
30729;SDS011;17476;48.458;7.928;2024-03-29T03:27:14;0.20;;;0.20;;
30729;SDS011;17476;48.458;7.928;2024-03-29T03:29:39;0.30;;;0.30;;
30729;SDS011;17476;48.458;7.928;2024-03-29T03:32:05;0.20;;;0.20;;
30729;SDS011;17476;48.458;7.928;2024-03-29T03:34:31;0.30;;;0.30;;
30729;SDS011;17476;48.458;7.928;2024-03-29T03:36:59;0.30;;;0.30;;
30729;SDS011;17476;48.458;7.928;2024-03-29T03:39:24;0.30;;;0.30;;
30729;SDS011;17476;48.458;7.928;2024-03-29T03:41:50;0.20;;;0.20;;
30729;SDS011;17476;48.458;7.928;2024-03-29T03:44:16;0.30;;;0.30;;
30729;SDS011;17476;48.458;7.928;2024-03-29T03:46:42;0.30;;;0.30;;
30729;SDS011;17476;48.458;7.928;2024-03-29T03:49:08;0.30;;;0.30;;
30729;SDS011;17476;48.458;7.928;2024-03-29T03:51:33;0.23;;;0.23;;
30729;SDS011;17476;48.458;7.928;2024-03-29T03:53:59;0.30;;;0.30;;
30729;SDS011;17476;48.458;7.928;2024-03-29T03:56:25;0.30;;;0.30;;
30729;SDS011;17476;48.458;7.928;2024-03-29T03:58:51;0.30;;;0.30;;
30729;SDS011;17476;48.458;7.928;2024-03-29T04:01:17;0.30;;;0.30;;
30729;SDS011;17476;48.458;7.928;2024-03-29T04:03:43;0.30;;;0.30;;
30729;SDS011;17476;48.458;7.928;2024-03-29T04:06:08;0.30;;;0.30;;
30729;SDS011;17476;48.458;7.928;2024-03-29T04:08:34;0.30;;;0.30;;
30729;SDS011;17476;48.458;7.928;2024-03-29T04:11:03;0.30;;;0.30;;
30729;SDS011;17476;48.458;7.928;2024-03-29T04:13:29;0.20;;;0.20;;
30729;SDS011;17476;48.458;7.928;2024-03-29T04:16:02;0.30;;;0.30;;
30729;SDS011;17476;48.458;7.928;2024-03-29T04:18:29;0.20;;;0.20;;
30729;SDS011;17476;48.458;7.928;2024-03-29T04:20:58;0.30;;;0.30;;
30729;SDS011;17476;48.458;7.928;2024-03-29T04:23:25;0.30;;;0.30;;
30729;SDS011;17476;48.458;7.928;2024-03-29T04:25:58;0.30;;;0.30;;
30729;SDS011;17476;48.458;7.928;2024-03-29T04:28:25;0.30;;;0.30;;
30729;SDS011;17476;48.458;7.928;2024-03-29T04:30:58;0.30;;;0.30;;
30729;SDS011;17476;48.458;7.928;2024-03-29T04:33:26;0.30;;;0.30;;
30729;SDS011;17476;48.458;7.928;2024-03-29T04:35:58;0.30;;;0.30;;
30729;SDS011;17476;48.458;7.928;2024-03-29T04:38:29;0.30;;;0.30;;
30729;SDS011;17476;48.458;7.928;2024-03-29T04:40:57;0.30;;;0.30;;
30729;SDS011;17476;48.458;7.928;2024-03-29T04:43:26;0.20;;;0.20;;
30729;SDS011;17476;48.458;7.928;2024-03-29T04:46:03;0.20;;;0.20;;
30729;SDS011;17476;48.458;7.928;2024-03-29T04:48:35;0.23;;;0.23;;
30729;SDS011;17476;48.458;7.928;2024-03-29T04:51:06;0.30;;;0.30;;
30729;SDS011;17476;48.458;7.928;2024-03-29T04:53:32;0.30;;;0.30;;
30729;SDS011;17476;48.458;7.928;2024-03-29T04:56:01;0.27;;;0.27;;
30729;SDS011;17476;48.458;7.928;2024-03-29T04:58:27;0.20;;;0.20;;
30729;SDS011;17476;48.458;7.928;2024-03-29T05:00:54;0.30;;;0.30;;
30729;SDS011;17476;48.458;7.928;2024-03-29T05:03:20;0.30;;;0.30;;
30729;SDS011;17476;48.458;7.928;2024-03-29T05:05:49;0.30;;;0.30;;
30729;SDS011;17476;48.458;7.928;2024-03-29T05:08:16;0.20;;;0.20;;
30729;SDS011;17476;48.458;7.928;2024-03-29T05:10:46;0.27;;;0.27;;
30729;SDS011;17476;48.458;7.928;2024-03-29T05:13:12;0.30;;;0.30;;
30729;SDS011;17476;48.458;7.928;2024-03-29T05:15:38;0.20;;;0.20;;
30729;SDS011;17476;48.458;7.928;2024-03-29T05:18:04;0.20;;;0.20;;
30729;SDS011;17476;48.458;7.928;2024-03-29T05:20:30;0.20;;;0.20;;
30729;SDS011;17476;48.458;7.928;2024-03-29T05:22:57;0.30;;;0.30;;
30729;SDS011;17476;48.458;7.928;2024-03-29T05:25:24;0.30;;;0.30;;
30729;SDS011;17476;48.458;7.928;2024-03-29T05:27:50;0.20;;;0.20;;
30729;SDS011;17476;48.458;7.928;2024-03-29T05:30:15;0.23;;;0.23;;
30729;SDS011;17476;48.458;7.928;2024-03-29T05:32:41;0.30;;;0.30;;
30729;SDS011;17476;48.458;7.928;2024-03-29T05:35:07;0.30;;;0.30;;
30729;SDS011;17476;48.458;7.928;2024-03-29T05:37:34;0.30;;;0.30;;
30729;SDS011;17476;48.458;7.928;2024-03-29T05:40:01;0.20;;;0.20;;
30729;SDS011;17476;48.458;7.928;2024-03-29T05:42:31;0.30;;;0.30;;
30729;SDS011;17476;48.458;7.928;2024-03-29T05:45:03;0.30;;;0.30;;
30729;SDS011;17476;48.458;7.928;2024-03-29T05:47:30;0.20;;;0.20;;
30729;SDS011;17476;48.458;7.928;2024-03-29T05:49:56;0.23;;;0.23;;
30729;SDS011;17476;48.458;7.928;2024-03-29T05:52:22;0.20;;;0.20;;
30729;SDS011;17476;48.458;7.928;2024-03-29T05:54:48;0.20;;;0.20;;
30729;SDS011;17476;48.458;7.928;2024-03-29T05:57:14;0.30;;;0.30;;
30729;SDS011;17476;48.458;7.928;2024-03-29T05:59:41;0.30;;;0.30;;
30729;SDS011;17476;48.458;7.928;2024-03-29T06:02:06;0.20;;;0.20;;
30729;SDS011;17476;48.458;7.928;2024-03-29T06:04:32;0.30;;;0.30;;
30729;SDS011;17476;48.458;7.928;2024-03-29T06:06:58;0.20;;;0.20;;
30729;SDS011;17476;48.458;7.928;2024-03-29T06:09:25;0.30;;;0.30;;
30729;SDS011;17476;48.458;7.928;2024-03-29T06:11:51;0.20;;;0.20;;
30729;SDS011;17476;48.458;7.928;2024-03-29T06:14:19;0.30;;;0.30;;
30729;SDS011;17476;48.458;7.928;2024-03-29T06:17:03;0.30;;;0.30;;
30729;SDS011;17476;48.458;7.928;2024-03-29T06:19:47;0.20;;;0.20;;
30729;SDS011;17476;48.458;7.928;2024-03-29T06:22:19;0.30;;;0.30;;
30729;SDS011;17476;48.458;7.928;2024-03-29T06:24:44;0.30;;;0.30;;
30729;SDS011;17476;48.458;7.928;2024-03-29T06:27:11;0.30;;;0.30;;
30729;SDS011;17476;48.458;7.928;2024-03-29T06:29:41;0.20;;;0.20;;
30729;SDS011;17476;48.458;7.928;2024-03-29T06:32:10;0.30;;;0.30;;
30729;SDS011;17476;48.458;7.928;2024-03-29T06:34:35;0.30;;;0.30;;
30729;SDS011;17476;48.458;7.928;2024-03-29T06:37:01;0.30;;;0.30;;
30729;SDS011;17476;48.458;7.928;2024-03-29T06:39:28;0.17;;;0.17;;
30729;SDS011;17476;48.458;7.928;2024-03-29T06:41:53;0.20;;;0.20;;
30729;SDS011;17476;48.458;7.928;2024-03-29T06:44:19;0.20;;;0.20;;
30729;SDS011;17476;48.458;7.928;2024-03-29T06:46:45;0.30;;;0.30;;
30729;SDS011;17476;48.458;7.928;2024-03-29T06:49:12;0.30;;;0.30;;
30729;SDS011;17476;48.458;7.928;2024-03-29T06:51:40;0.20;;;0.20;;
30729;SDS011;17476;48.458;7.928;2024-03-29T06:54:06;0.30;;;0.30;;
30729;SDS011;17476;48.458;7.928;2024-03-29T06:56:32;0.30;;;0.30;;
30729;SDS011;17476;48.458;7.928;2024-03-29T06:58:58;0.20;;;0.20;;
30729;SDS011;17476;48.458;7.928;2024-03-29T07:01:24;0.30;;;0.30;;
30729;SDS011;17476;48.458;7.928;2024-03-29T07:03:50;0.30;;;0.30;;
30729;SDS011;17476;48.458;7.928;2024-03-29T07:06:16;0.30;;;0.30;;
30729;SDS011;17476;48.458;7.928;2024-03-29T07:08:41;0.20;;;0.20;;
30729;SDS011;17476;48.458;7.928;2024-03-29T07:11:07;0.20;;;0.20;;
30729;SDS011;17476;48.458;7.928;2024-03-29T07:13:33;0.10;;;0.10;;
30729;SDS011;17476;48.458;7.928;2024-03-29T07:15:59;0.20;;;0.20;;
30729;SDS011;17476;48.458;7.928;2024-03-29T07:18:26;0.20;;;0.20;;
30729;SDS011;17476;48.458;7.928;2024-03-29T07:20:52;0.20;;;0.20;;
30729;SDS011;17476;48.458;7.928;2024-03-29T07:23:18;0.20;;;0.20;;
30729;SDS011;17476;48.458;7.928;2024-03-29T07:25:44;0.30;;;0.30;;
30729;SDS011;17476;48.458;7.928;2024-03-29T07:28:11;0.20;;;0.20;;
30729;SDS011;17476;48.458;7.928;2024-03-29T07:30:41;0.20;;;0.20;;
30729;SDS011;17476;48.458;7.928;2024-03-29T07:33:07;0.30;;;0.30;;
30729;SDS011;17476;48.458;7.928;2024-03-29T07:35:34;0.20;;;0.20;;
30729;SDS011;17476;48.458;7.928;2024-03-29T07:38:00;0.30;;;0.30;;
30729;SDS011;17476;48.458;7.928;2024-03-29T07:40:26;0.30;;;0.30;;
30729;SDS011;17476;48.458;7.928;2024-03-29T07:42:51;0.30;;;0.30;;
30729;SDS011;17476;48.458;7.928;2024-03-29T07:45:17;0.20;;;0.20;;
30729;SDS011;17476;48.458;7.928;2024-03-29T07:47:43;0.10;;;0.10;;
30729;SDS011;17476;48.458;7.928;2024-03-29T07:50:09;0.20;;;0.20;;
30729;SDS011;17476;48.458;7.928;2024-03-29T07:52:35;0.20;;;0.20;;
30729;SDS011;17476;48.458;7.928;2024-03-29T07:55:01;0.30;;;0.30;;
30729;SDS011;17476;48.458;7.928;2024-03-29T07:57:26;0.20;;;0.20;;
30729;SDS011;17476;48.458;7.928;2024-03-29T07:59:52;0.30;;;0.30;;
30729;SDS011;17476;48.458;7.928;2024-03-29T08:02:18;0.17;;;0.17;;
30729;SDS011;17476;48.458;7.928;2024-03-29T08:04:44;0.20;;;0.20;;
30729;SDS011;17476;48.458;7.928;2024-03-29T08:07:10;0.30;;;0.30;;
30729;SDS011;17476;48.458;7.928;2024-03-29T08:09:37;0.20;;;0.20;;
30729;SDS011;17476;48.458;7.928;2024-03-29T08:12:04;0.30;;;0.30;;
30729;SDS011;17476;48.458;7.928;2024-03-29T08:14:31;0.30;;;0.30;;
30729;SDS011;17476;48.458;7.928;2024-03-29T08:16:57;0.20;;;0.20;;
30729;SDS011;17476;48.458;7.928;2024-03-29T08:19:29;0.30;;;0.30;;
30729;SDS011;17476;48.458;7.928;2024-03-29T08:21:55;0.30;;;0.30;;
30729;SDS011;17476;48.458;7.928;2024-03-29T08:24:21;0.30;;;0.30;;
30729;SDS011;17476;48.458;7.928;2024-03-29T08:26:47;0.30;;;0.30;;
30729;SDS011;17476;48.458;7.928;2024-03-29T08:29:12;0.23;;;0.23;;
30729;SDS011;17476;48.458;7.928;2024-03-29T08:31:38;0.20;;;0.20;;
30729;SDS011;17476;48.458;7.928;2024-03-29T08:34:04;0.20;;;0.20;;
30729;SDS011;17476;48.458;7.928;2024-03-29T08:36:31;0.20;;;0.20;;
30729;SDS011;17476;48.458;7.928;2024-03-29T08:38:57;0.30;;;0.30;;
30729;SDS011;17476;48.458;7.928;2024-03-29T08:41:23;0.20;;;0.20;;
30729;SDS011;17476;48.458;7.928;2024-03-29T08:43:49;0.20;;;0.20;;
30729;SDS011;17476;48.458;7.928;2024-03-29T08:46:15;0.30;;;0.30;;
30729;SDS011;17476;48.458;7.928;2024-03-29T08:48:40;0.20;;;0.20;;
30729;SDS011;17476;48.458;7.928;2024-03-29T08:51:08;0.20;;;0.20;;
30729;SDS011;17476;48.458;7.928;2024-03-29T08:53:34;0.30;;;0.30;;
30729;SDS011;17476;48.458;7.928;2024-03-29T08:56:00;0.30;;;0.30;;
30729;SDS011;17476;48.458;7.928;2024-03-29T08:58:26;0.30;;;0.30;;
30729;SDS011;17476;48.458;7.928;2024-03-29T09:00:52;0.30;;;0.30;;
30729;SDS011;17476;48.458;7.928;2024-03-29T09:03:22;0.27;;;0.27;;
30729;SDS011;17476;48.458;7.928;2024-03-29T09:05:48;0.20;;;0.20;;
30729;SDS011;17476;48.458;7.928;2024-03-29T09:08:15;0.20;;;0.20;;
30729;SDS011;17476;48.458;7.928;2024-03-29T09:10:42;0.30;;;0.30;;
30729;SDS011;17476;48.458;7.928;2024-03-29T09:13:08;0.20;;;0.20;;
30729;SDS011;17476;48.458;7.928;2024-03-29T09:15:35;0.30;;;0.30;;
30729;SDS011;17476;48.458;7.928;2024-03-29T09:18:01;0.30;;;0.30;;
30729;SDS011;17476;48.458;7.928;2024-03-29T09:20:34;0.30;;;0.30;;
30729;SDS011;17476;48.458;7.928;2024-03-29T09:23:01;0.30;;;0.30;;
30729;SDS011;17476;48.458;7.928;2024-03-29T09:25:27;0.30;;;0.30;;
30729;SDS011;17476;48.458;7.928;2024-03-29T09:27:53;0.30;;;0.30;;
30729;SDS011;17476;48.458;7.928;2024-03-29T09:30:18;0.20;;;0.20;;
30729;SDS011;17476;48.458;7.928;2024-03-29T09:32:45;0.23;;;0.23;;
30729;SDS011;17476;48.458;7.928;2024-03-29T09:35:13;0.27;;;0.27;;
30729;SDS011;17476;48.458;7.928;2024-03-29T09:37:38;0.20;;;0.20;;
30729;SDS011;17476;48.458;7.928;2024-03-29T09:40:05;0.30;;;0.30;;
30729;SDS011;17476;48.458;7.928;2024-03-29T09:42:32;0.30;;;0.30;;
30729;SDS011;17476;48.458;7.928;2024-03-29T09:44:59;0.30;;;0.30;;
30729;SDS011;17476;48.458;7.928;2024-03-29T09:47:28;0.30;;;0.30;;
30729;SDS011;17476;48.458;7.928;2024-03-29T09:49:56;0.30;;;0.30;;
30729;SDS011;17476;48.458;7.928;2024-03-29T09:52:28;0.30;;;0.30;;
30729;SDS011;17476;48.458;7.928;2024-03-29T09:54:56;0.20;;;0.20;;
30729;SDS011;17476;48.458;7.928;2024-03-29T09:57:22;0.20;;;0.20;;
30729;SDS011;17476;48.458;7.928;2024-03-29T09:59:49;0.30;;;0.30;;
30729;SDS011;17476;48.458;7.928;2024-03-29T10:02:15;0.30;;;0.30;;
30729;SDS011;17476;48.458;7.928;2024-03-29T10:04:42;0.27;;;0.27;;
30729;SDS011;17476;48.458;7.928;2024-03-29T10:07:10;0.20;;;0.20;;
30729;SDS011;17476;48.458;7.928;2024-03-29T10:09:37;0.20;;;0.20;;
30729;SDS011;17476;48.458;7.928;2024-03-29T10:12:04;0.23;;;0.23;;
30729;SDS011;17476;48.458;7.928;2024-03-29T10:14:42;0.20;;;0.20;;
30729;SDS011;17476;48.458;7.928;2024-03-29T10:17:19;0.20;;;0.20;;
30729;SDS011;17476;48.458;7.928;2024-03-29T10:19:45;0.20;;;0.20;;
30729;SDS011;17476;48.458;7.928;2024-03-29T10:22:12;0.13;;;0.13;;
30729;SDS011;17476;48.458;7.928;2024-03-29T10:24:38;0.20;;;0.20;;
30729;SDS011;17476;48.458;7.928;2024-03-29T10:27:04;0.10;;;0.10;;
30729;SDS011;17476;48.458;7.928;2024-03-29T10:29:30;0.10;;;0.10;;
30729;SDS011;17476;48.458;7.928;2024-03-29T10:31:56;0.10;;;0.10;;
30729;SDS011;17476;48.458;7.928;2024-03-29T10:34:22;0.10;;;0.10;;
30729;SDS011;17476;48.458;7.928;2024-03-29T10:36:50;0.07;;;0.07;;
30729;SDS011;17476;48.458;7.928;2024-03-29T10:39:16;0.10;;;0.10;;
30729;SDS011;17476;48.458;7.928;2024-03-29T10:41:43;0.00;;;0.00;;
30729;SDS011;17476;48.458;7.928;2024-03-29T10:44:15;0.17;;;0.17;;
30729;SDS011;17476;48.458;7.928;2024-03-29T10:46:41;0.10;;;0.10;;
30729;SDS011;17476;48.458;7.928;2024-03-29T10:49:09;0.10;;;0.10;;
30729;SDS011;17476;48.458;7.928;2024-03-29T10:51:39;0.00;;;0.00;;
30729;SDS011;17476;48.458;7.928;2024-03-29T10:54:09;0.00;;;0.00;;
30729;SDS011;17476;48.458;7.928;2024-03-29T10:56:37;0.00;;;0.00;;
30729;SDS011;17476;48.458;7.928;2024-03-29T10:59:10;0.10;;;0.10;;
30729;SDS011;17476;48.458;7.928;2024-03-29T11:01:52;0.00;;;0.00;;
30729;SDS011;17476;48.458;7.928;2024-03-29T11:04:27;0.10;;;0.10;;
30729;SDS011;17476;48.458;7.928;2024-03-29T11:06:58;0.00;;;0.00;;
30729;SDS011;17476;48.458;7.928;2024-03-29T11:09:31;0.10;;;0.10;;
30729;SDS011;17476;48.458;7.928;2024-03-29T11:12:00;0.10;;;0.10;;
30729;SDS011;17476;48.458;7.928;2024-03-29T11:14:35;0.00;;;0.00;;
30729;SDS011;17476;48.458;7.928;2024-03-29T11:17:09;0.07;;;0.07;;
30729;SDS011;17476;48.458;7.928;2024-03-29T11:19:37;0.10;;;0.10;;
30729;SDS011;17476;48.458;7.928;2024-03-29T11:22:03;0.03;;;0.03;;
30729;SDS011;17476;48.458;7.928;2024-03-29T11:24:30;0.10;;;0.10;;
30729;SDS011;17476;48.458;7.928;2024-03-29T11:27:09;0.00;;;0.00;;
30729;SDS011;17476;48.458;7.928;2024-03-29T11:29:35;0.10;;;0.10;;
30729;SDS011;17476;48.458;7.928;2024-03-29T11:32:05;0.00;;;0.00;;
30729;SDS011;17476;48.458;7.928;2024-03-29T11:34:31;0.00;;;0.00;;
30729;SDS011;17476;48.458;7.928;2024-03-29T11:37:07;0.10;;;0.10;;
30729;SDS011;17476;48.458;7.928;2024-03-29T11:39:34;0.00;;;0.00;;
30729;SDS011;17476;48.458;7.928;2024-03-29T11:42:01;0.10;;;0.10;;
30729;SDS011;17476;48.458;7.928;2024-03-29T11:44:27;0.10;;;0.10;;
30729;SDS011;17476;48.458;7.928;2024-03-29T11:46:53;0.00;;;0.00;;
30729;SDS011;17476;48.458;7.928;2024-03-29T11:49:23;0.10;;;0.10;;
30729;SDS011;17476;48.458;7.928;2024-03-29T11:51:49;0.10;;;0.10;;
30729;SDS011;17476;48.458;7.928;2024-03-29T11:54:15;0.00;;;0.00;;
30729;SDS011;17476;48.458;7.928;2024-03-29T11:56:42;0.00;;;0.00;;
30729;SDS011;17476;48.458;7.928;2024-03-29T11:59:08;0.10;;;0.10;;
30729;SDS011;17476;48.458;7.928;2024-03-29T12:01:34;0.00;;;0.00;;
30729;SDS011;17476;48.458;7.928;2024-03-29T12:04:04;0.10;;;0.10;;
30729;SDS011;17476;48.458;7.928;2024-03-29T12:06:30;0.10;;;0.10;;
30729;SDS011;17476;48.458;7.928;2024-03-29T12:08:56;0.00;;;0.00;;
30729;SDS011;17476;48.458;7.928;2024-03-29T12:11:22;0.00;;;0.00;;
30729;SDS011;17476;48.458;7.928;2024-03-29T12:13:49;0.10;;;0.10;;
30729;SDS011;17476;48.458;7.928;2024-03-29T12:16:15;0.10;;;0.10;;
30729;SDS011;17476;48.458;7.928;2024-03-29T12:18:40;0.10;;;0.10;;
30729;SDS011;17476;48.458;7.928;2024-03-29T12:21:06;0.10;;;0.10;;
30729;SDS011;17476;48.458;7.928;2024-03-29T12:23:34;0.10;;;0.10;;
30729;SDS011;17476;48.458;7.928;2024-03-29T12:26:00;0.00;;;0.00;;
30729;SDS011;17476;48.458;7.928;2024-03-29T12:28:26;0.10;;;0.10;;
30729;SDS011;17476;48.458;7.928;2024-03-29T12:30:53;0.10;;;0.10;;
30729;SDS011;17476;48.458;7.928;2024-03-29T12:33:20;0.00;;;0.00;;
30729;SDS011;17476;48.458;7.928;2024-03-29T12:35:48;0.10;;;0.10;;
30729;SDS011;17476;48.458;7.928;2024-03-29T12:38:18;0.00;;;0.00;;
30729;SDS011;17476;48.458;7.928;2024-03-29T12:40:46;0.10;;;0.10;;
30729;SDS011;17476;48.458;7.928;2024-03-29T12:43:14;0.10;;;0.10;;
30729;SDS011;17476;48.458;7.928;2024-03-29T12:45:45;0.10;;;0.10;;
30729;SDS011;17476;48.458;7.928;2024-03-29T12:48:18;0.10;;;0.10;;
30729;SDS011;17476;48.458;7.928;2024-03-29T12:50:46;0.00;;;0.00;;
30729;SDS011;17476;48.458;7.928;2024-03-29T12:53:13;0.00;;;0.00;;
30729;SDS011;17476;48.458;7.928;2024-03-29T12:55:41;0.10;;;0.10;;
30729;SDS011;17476;48.458;7.928;2024-03-29T12:58:15;0.10;;;0.10;;
30729;SDS011;17476;48.458;7.928;2024-03-29T13:00:43;0.10;;;0.10;;
30729;SDS011;17476;48.458;7.928;2024-03-29T13:03:09;0.10;;;0.10;;
30729;SDS011;17476;48.458;7.928;2024-03-29T13:05:36;0.10;;;0.10;;
30729;SDS011;17476;48.458;7.928;2024-03-29T13:08:09;0.00;;;0.00;;
30729;SDS011;17476;48.458;7.928;2024-03-29T13:10:37;0.10;;;0.10;;
30729;SDS011;17476;48.458;7.928;2024-03-29T13:13:04;0.00;;;0.00;;
30729;SDS011;17476;48.458;7.928;2024-03-29T13:15:32;0.00;;;0.00;;
30729;SDS011;17476;48.458;7.928;2024-03-29T13:18:00;0.00;;;0.00;;
30729;SDS011;17476;48.458;7.928;2024-03-29T13:20:27;0.10;;;0.10;;
30729;SDS011;17476;48.458;7.928;2024-03-29T13:22:53;0.10;;;0.10;;
30729;SDS011;17476;48.458;7.928;2024-03-29T13:25:20;0.10;;;0.10;;
30729;SDS011;17476;48.458;7.928;2024-03-29T13:27:48;0.00;;;0.00;;
30729;SDS011;17476;48.458;7.928;2024-03-29T13:30:20;0.00;;;0.00;;
30729;SDS011;17476;48.458;7.928;2024-03-29T13:32:47;0.10;;;0.10;;
30729;SDS011;17476;48.458;7.928;2024-03-29T13:35:14;0.00;;;0.00;;
30729;SDS011;17476;48.458;7.928;2024-03-29T13:37:43;0.10;;;0.10;;
30729;SDS011;17476;48.458;7.928;2024-03-29T13:40:11;0.00;;;0.00;;
30729;SDS011;17476;48.458;7.928;2024-03-29T13:42:38;0.00;;;0.00;;
30729;SDS011;17476;48.458;7.928;2024-03-29T13:45:04;0.00;;;0.00;;
30729;SDS011;17476;48.458;7.928;2024-03-29T13:47:34;0.10;;;0.10;;
30729;SDS011;17476;48.458;7.928;2024-03-29T13:50:07;0.00;;;0.00;;
30729;SDS011;17476;48.458;7.928;2024-03-29T13:52:34;0.00;;;0.00;;
30729;SDS011;17476;48.458;7.928;2024-03-29T13:55:02;0.10;;;0.10;;
30729;SDS011;17476;48.458;7.928;2024-03-29T13:57:28;0.00;;;0.00;;
30729;SDS011;17476;48.458;7.928;2024-03-29T13:59:55;0.00;;;0.00;;
30729;SDS011;17476;48.458;7.928;2024-03-29T14:02:22;0.00;;;0.00;;
30729;SDS011;17476;48.458;7.928;2024-03-29T14:04:49;0.00;;;0.00;;
30729;SDS011;17476;48.458;7.928;2024-03-29T14:07:15;0.00;;;0.00;;
30729;SDS011;17476;48.458;7.928;2024-03-29T14:09:45;0.00;;;0.00;;
30729;SDS011;17476;48.458;7.928;2024-03-29T14:12:11;0.00;;;0.00;;
30729;SDS011;17476;48.458;7.928;2024-03-29T14:14:38;0.00;;;0.00;;
30729;SDS011;17476;48.458;7.928;2024-03-29T14:17:04;0.00;;;0.00;;
30729;SDS011;17476;48.458;7.928;2024-03-29T14:19:38;0.10;;;0.10;;
30729;SDS011;17476;48.458;7.928;2024-03-29T14:22:04;0.00;;;0.00;;
30729;SDS011;17476;48.458;7.928;2024-03-29T14:24:32;0.00;;;0.00;;
30729;SDS011;17476;48.458;7.928;2024-03-29T14:27:02;0.07;;;0.07;;
30729;SDS011;17476;48.458;7.928;2024-03-29T14:29:29;0.10;;;0.10;;
30729;SDS011;17476;48.458;7.928;2024-03-29T14:31:56;0.00;;;0.00;;
30729;SDS011;17476;48.458;7.928;2024-03-29T14:34:22;0.00;;;0.00;;
30729;SDS011;17476;48.458;7.928;2024-03-29T14:36:48;0.00;;;0.00;;
30729;SDS011;17476;48.458;7.928;2024-03-29T14:39:15;0.10;;;0.10;;
30729;SDS011;17476;48.458;7.928;2024-03-29T14:41:43;0.00;;;0.00;;
30729;SDS011;17476;48.458;7.928;2024-03-29T14:44:11;0.00;;;0.00;;
30729;SDS011;17476;48.458;7.928;2024-03-29T14:46:37;0.00;;;0.00;;
30729;SDS011;17476;48.458;7.928;2024-03-29T14:49:04;0.00;;;0.00;;
30729;SDS011;17476;48.458;7.928;2024-03-29T14:51:32;0.00;;;0.00;;